Time;durP1;ratioP1;P1;durP2;ratioP2;P2;SDS_P1;SDS_P2;PMS_P1;PMS_P2;Temp;Humidity;BMP_temperature;BMP_pressure;BME280_temperature;BME280_humidity;BME280_pressure;Samples;Min_cycle;Max_cycle;Signal;HPM_P1;HPM_P2
2022/01/21 00:01:21;;;;;;;12.18;2.17;;;4.00;81.60;;;;;;5030681;28;20030;-68
2022/01/21 00:03:47;;;;;;;12.65;1.60;;;4.00;81.70;;;;;;5030372;28;20029;-62
2022/01/21 00:06:13;;;;;;;10.10;2.17;;;3.90;81.90;;;;;;5030760;28;20065;-68
2022/01/21 00:08:41;;;;;;;12.30;3.03;;;3.90;82.00;;;;;;5030841;28;20028;-69
2022/01/21 00:11:08;;;;;;;10.48;1.60;;;3.90;82.00;;;;;;5012851;28;20104;-68
2022/01/21 00:13:34;;;;;;;15.32;2.17;;;3.90;82.00;;;;;;5028089;28;20032;-69
2022/01/21 00:16:09;;;;;;;10.73;1.83;;;3.90;82.20;;;;;;5026941;28;20037;-68
2022/01/21 00:18:37;;;;;;;10.23;2.40;;;3.80;82.40;;;;;;5029252;28;20050;-67
2022/01/21 00:32:01;;;;;;;7.43;1.40;;;3.70;82.30;;;;;;4998873;28;20099;-68
2022/01/21 00:34:27;;;;;;;9.48;1.85;;;3.80;82.40;;;;;;5013215;28;20477;-67
2022/01/21 00:36:52;;;;;;;9.80;2.13;;;3.80;82.40;;;;;;5016355;28;20038;-68
2022/01/21 00:39:22;;;;;;;9.02;1.60;;;3.70;82.50;;;;;;5013806;28;20426;-69
2022/01/21 00:42:43;;;;;;;9.50;1.73;;;3.80;82.50;;;;;;5003243;28;20619;-62
2022/01/21 00:44:40;;;;;;;9.90;1.60;;;3.80;82.60;;;;;;5000038;28;20050;-62
2022/01/21 00:47:07;;;;;;;9.63;1.80;;;3.80;82.50;;;;;;4976420;28;20539;-69
2022/01/21 00:49:33;;;;;;;7.95;1.65;;;3.80;82.50;;;;;;5010327;28;20061;-68
2022/01/21 00:51:59;;;;;;;8.63;1.55;;;3.80;82.60;;;;;;5009272;28;20457;-62
2022/01/21 00:54:25;;;;;;;6.75;1.40;;;3.80;82.60;;;;;;4992642;28;20038;-62
2022/01/21 00:56:50;;;;;;;6.80;1.73;;;3.80;82.70;;;;;;5010174;28;20116;-62
2022/01/21 00:59:16;;;;;;;10.73;1.77;;;3.80;82.80;;;;;;4992374;28;20393;-69
2022/01/21 01:01:42;;;;;;;10.43;1.65;;;3.80;82.90;;;;;;5008732;28;20033;-68
2022/01/21 01:04:08;;;;;;;10.25;1.98;;;3.80;82.90;;;;;;4989818;28;20026;-68
2022/01/21 01:06:34;;;;;;;9.25;2.22;;;3.80;82.90;;;;;;5006879;28;20080;-62
2022/01/21 01:09:00;;;;;;;11.98;2.72;;;3.70;83.00;;;;;;4990897;28;20040;-67
2022/01/21 01:11:45;;;;;;;11.30;1.73;;;3.70;83.20;;;;;;4992887;28;20041;-68
2022/01/21 01:22:24;;;;;;;14.98;1.80;;;3.60;83.20;;;;;;5002213;28;20061;-62
2022/01/21 01:30:01;;;;;;;10.77;1.70;;;3.60;83.40;;;;;;5029768;28;20045;-67
2022/01/21 01:32:28;;;;;;;10.52;2.22;;;3.60;83.40;;;;;;5028509;28;20025;-69
2022/01/21 01:34:54;;;;;;;11.07;1.90;;;3.60;83.40;;;;;;5031336;28;20389;-68
2022/01/21 01:37:42;;;;;;;9.93;2.53;;;3.60;83.50;;;;;;5015918;28;20033;-68
2022/01/21 01:40:19;;;;;;;15.07;2.83;;;3.60;83.50;;;;;;5033048;28;20122;-68
2022/01/21 01:50:57;;;;;;;8.38;1.90;;;3.60;83.50;;;;;;5033628;28;20492;-68
2022/01/21 01:53:28;;;;;;;8.82;1.80;;;3.60;83.50;;;;;;5015534;28;20021;-68
2022/01/21 01:55:54;;;;;;;13.05;2.33;;;3.60;83.50;;;;;;5033240;28;20029;-68
2022/01/21 01:58:19;;;;;;;14.07;3.25;;;3.70;83.60;;;;;;5033190;28;20034;-68
2022/01/21 02:00:45;;;;;;;14.15;2.45;;;3.70;83.60;;;;;;5032950;28;20036;-68
2022/01/21 02:03:14;;;;;;;12.82;2.90;;;3.70;83.50;;;;;;5032063;28;20083;-69
2022/01/21 02:05:41;;;;;;;10.73;1.92;;;3.70;83.50;;;;;;5033210;28;20033;-69
2022/01/21 02:08:07;;;;;;;11.63;2.80;;;3.70;83.40;;;;;;5033274;28;20049;-69
2022/01/21 02:10:34;;;;;;;11.48;2.00;;;3.70;83.30;;;;;;5032916;28;20091;-69
2022/01/21 02:13:06;;;;;;;12.55;2.03;;;3.70;83.40;;;;;;5032435;28;20068;-68
2022/01/21 02:15:38;;;;;;;15.35;2.28;;;3.70;83.30;;;;;;5027230;28;20037;-69
2022/01/21 02:23:34;;;;;;;8.60;1.60;;;3.70;83.30;;;;;;5044778;28;20352;-62
2022/01/21 02:26:01;;;;;;;11.27;2.08;;;3.60;83.20;;;;;;5032310;28;20033;-62
2022/01/21 02:28:27;;;;;;;10.35;2.08;;;3.60;83.20;;;;;;5015030;28;20079;-62
2022/01/21 02:30:55;;;;;;;12.68;2.58;;;3.60;83.20;;;;;;5027442;28;20030;-62
2022/01/21 02:33:21;;;;;;;10.02;1.83;;;3.60;83.10;;;;;;5025296;28;20073;-62
2022/01/21 02:35:47;;;;;;;11.38;2.00;;;3.60;83.10;;;;;;5032545;28;20041;-63
2022/01/21 02:38:13;;;;;;;11.02;1.80;;;3.60;83.10;;;;;;5032497;28;20025;-62
2022/01/21 02:40:38;;;;;;;15.23;2.08;;;3.60;83.10;;;;;;5033005;28;20021;-62
2022/01/21 02:43:04;;;;;;;11.30;3.03;;;3.60;83.00;;;;;;5032226;28;20485;-69
2022/01/21 02:45:30;;;;;;;11.10;2.20;;;3.50;82.90;;;;;;5031423;28;20091;-68
2022/01/21 02:47:56;;;;;;;11.27;2.60;;;3.50;83.00;;;;;;5031584;28;20022;-68
2022/01/21 02:50:21;;;;;;;17.90;2.35;;;3.50;83.00;;;;;;5032339;28;20033;-67
2022/01/21 02:52:58;;;;;;;13.07;2.28;;;3.50;83.00;;;;;;5034713;28;20021;-61
2022/01/21 02:55:25;;;;;;;9.57;2.55;;;3.50;83.60;;;;;;5031195;28;20563;-61
2022/01/21 02:57:51;;;;;;;8.88;1.92;;;3.40;83.00;;;;;;5028748;28;20112;-61
2022/01/21 03:00:17;;;;;;;13.02;2.03;;;3.40;83.00;;;;;;5032416;28;20113;-61
2022/01/21 03:02:43;;;;;;;14.48;2.60;;;3.40;83.00;;;;;;5031228;28;20025;-62
2022/01/21 03:05:13;;;;;;;11.80;2.00;;;3.40;83.00;;;;;;5014446;28;20033;-61
2022/01/21 03:07:39;;;;;;;13.40;2.22;;;3.40;83.00;;;;;;5015166;28;20028;-62
2022/01/21 03:10:05;;;;;;;8.32;2.30;;;3.40;83.00;;;;;;5032372;28;20029;-62
2022/01/21 03:12:31;;;;;;;9.85;2.20;;;3.30;82.90;;;;;;5013908;28;20507;-62
2022/01/21 03:14:56;;;;;;;11.95;1.90;;;3.30;83.00;;;;;;5014318;28;20034;-61
2022/01/21 03:17:22;;;;;;;10.88;3.17;;;3.30;83.10;;;;;;5031691;28;20033;-62
2022/01/21 03:19:48;;;;;;;15.38;1.83;;;3.30;83.10;;;;;;5032171;28;20104;-61
2022/01/21 03:22:13;;;;;;;8.30;1.88;;;3.30;83.00;;;;;;5029723;28;20128;-66
2022/01/21 03:24:39;;;;;;;13.77;2.22;;;3.30;83.00;;;;;;5031388;28;20053;-61
2022/01/21 03:27:05;;;;;;;9.45;1.95;;;3.30;83.20;;;;;;5031685;28;20100;-61
2022/01/21 03:29:31;;;;;;;6.80;1.60;;;3.30;83.20;;;;;;5031718;28;20056;-62
2022/01/21 03:31:57;;;;;;;12.38;1.70;;;3.30;83.40;;;;;;5030957;28;20091;-61
2022/01/21 03:34:22;;;;;;;9.77;1.88;;;3.30;83.40;;;;;;5029933;28;20041;-62
2022/01/21 03:36:49;;;;;;;13.38;2.15;;;3.20;83.40;;;;;;5031294;28;20035;-67
2022/01/21 03:39:16;;;;;;;8.13;1.40;;;3.20;83.40;;;;;;5030138;28;20061;-67
2022/01/21 03:41:42;;;;;;;9.98;1.77;;;3.20;83.50;;;;;;5030754;28;20025;-68
2022/01/21 03:44:07;;;;;;;13.00;2.15;;;3.30;83.60;;;;;;5031180;28;20424;-68
2022/01/21 03:46:33;;;;;;;8.32;1.77;;;3.30;83.50;;;;;;5030766;28;20033;-61
2022/01/21 03:48:59;;;;;;;6.95;2.00;;;3.30;83.50;;;;;;5013927;28;20025;-62
2022/01/21 03:51:24;;;;;;;12.27;1.63;;;3.30;83.50;;;;;;5030755;28;20033;-61
2022/01/21 03:53:50;;;;;;;7.00;1.50;;;3.20;83.40;;;;;;5031221;28;20116;-61
2022/01/21 03:56:17;;;;;;;13.25;1.60;;;3.20;83.40;;;;;;5030890;28;20403;-61
2022/01/21 03:58:43;;;;;;;9.10;1.65;;;3.20;83.40;;;;;;5012344;28;20503;-61
2022/01/21 04:01:09;;;;;;;9.40;1.30;;;3.20;83.40;;;;;;5009590;28;20025;-61
2022/01/21 04:03:35;;;;;;;8.63;2.38;;;3.20;83.40;;;;;;5030364;28;20576;-66
2022/01/21 04:06:01;;;;;;;9.80;1.58;;;3.20;83.30;;;;;;5022227;28;20025;-66
2022/01/21 04:08:26;;;;;;;8.02;1.48;;;3.10;83.20;;;;;;5012042;28;20469;-67
2022/01/21 04:10:52;;;;;;;10.32;1.70;;;3.10;83.20;;;;;;5011175;28;20051;-68
2022/01/21 04:13:19;;;;;;;6.95;1.75;;;3.10;83.20;;;;;;4998523;28;20021;-62
2022/01/21 04:15:56;;;;;;;6.80;1.50;;;3.10;83.20;;;;;;5028977;28;20547;-61
2022/01/21 04:18:23;;;;;;;8.88;1.63;;;3.10;83.20;;;;;;5025983;28;20026;-61
2022/01/21 04:20:50;;;;;;;12.77;1.67;;;3.10;83.20;;;;;;5011226;28;20124;-61
2022/01/21 04:23:17;;;;;;;8.82;1.63;;;3.00;83.30;;;;;;5011384;28;20257;-61
2022/01/21 04:25:43;;;;;;;9.43;2.10;;;3.00;83.30;;;;;;4990275;28;20377;-61
2022/01/21 04:28:10;;;;;;;6.63;1.58;;;3.00;83.40;;;;;;4990940;28;20030;-61
2022/01/21 04:30:36;;;;;;;9.38;1.60;;;3.00;83.50;;;;;;4991213;28;20025;-67
2022/01/21 04:33:02;;;;;;;7.40;1.50;;;3.00;83.50;;;;;;4995120;28;20470;-67
2022/01/21 04:35:28;;;;;;;9.32;1.60;;;3.00;83.60;;;;;;4991135;28;20161;-67
2022/01/21 04:37:58;;;;;;;7.03;1.50;;;3.00;83.50;;;;;;4964839;28;20470;-67
2022/01/21 04:40:28;;;;;;;6.93;1.42;;;3.00;83.60;;;;;;4971039;28;20165;-67
2022/01/21 04:48:24;;;;;;;11.35;1.80;;;3.00;83.60;;;;;;4971776;28;20561;-66
2022/01/21 04:51:12;;;;;;;12.32;1.90;;;2.90;83.60;;;;;;4988972;28;20034;-67
2022/01/21 04:53:39;;;;;;;5.82;1.60;;;2.90;83.70;;;;;;4988359;28;20034;-67
2022/01/21 04:56:05;;;;;;;7.78;1.98;;;3.00;83.70;;;;;;4982336;28;20038;-67
2022/01/21 04:58:31;;;;;;;9.23;1.70;;;2.90;83.70;;;;;;5005331;28;20030;-66
2022/01/21 05:00:56;;;;;;;8.98;1.60;;;2.90;83.70;;;;;;4979644;28;20088;-67
2022/01/21 05:03:22;;;;;;;7.95;1.45;;;2.90;83.60;;;;;;4989055;28;20030;-66
2022/01/21 05:05:48;;;;;;;16.42;2.00;;;2.90;83.60;;;;;;5005114;28;20081;-67
2022/01/21 05:08:25;;;;;;;12.20;1.73;;;2.90;83.60;;;;;;5005255;28;20019;-67
2022/01/21 05:10:51;;;;;;;8.43;1.83;;;2.90;83.70;;;;;;4988823;28;20041;-62
2022/01/21 05:13:21;;;;;;;10.48;1.75;;;2.90;83.80;;;;;;4990452;28;20026;-61
2022/01/21 05:16:11;;;;;;;7.65;1.67;;;2.90;83.80;;;;;;4989593;28;20393;-62
2022/01/21 05:18:36;;;;;;;10.48;1.85;;;2.90;83.90;;;;;;4989531;28;20030;-61
2022/01/21 05:21:02;;;;;;;7.80;1.30;;;2.90;83.90;;;;;;4987835;28;20109;-61
2022/01/21 05:23:28;;;;;;;6.03;1.77;;;2.90;84.00;;;;;;4998100;28;20050;-62
2022/01/21 05:25:55;;;;;;;8.38;1.27;;;2.90;84.00;;;;;;4980971;28;20391;-67
2022/01/21 05:28:21;;;;;;;11.45;2.00;;;2.80;84.00;;;;;;4989917;28;20080;-66
2022/01/21 05:30:47;;;;;;;9.80;1.73;;;2.80;84.00;;;;;;4991394;28;20042;-67
2022/01/21 05:33:13;;;;;;;10.27;2.13;;;2.80;84.00;;;;;;4990312;28;20100;-67
2022/01/21 05:35:38;;;;;;;10.07;1.63;;;2.80;84.10;;;;;;4990119;28;20037;-67
2022/01/21 05:38:04;;;;;;;11.93;1.40;;;2.80;84.10;;;;;;4998896;28;20485;-67
2022/01/21 05:40:30;;;;;;;9.15;2.25;;;2.80;84.20;;;;;;5008021;28;20056;-67
2022/01/21 05:42:56;;;;;;;12.60;1.80;;;2.80;84.30;;;;;;5008029;28;20018;-67
2022/01/21 05:48:06;;;;;;;6.82;1.50;;;2.80;84.40;;;;;;4990838;28;20062;-61
2022/01/21 05:50:31;;;;;;;8.43;1.75;;;2.80;84.40;;;;;;4990590;28;20026;-61
2022/01/21 05:53:01;;;;;;;5.93;1.30;;;2.80;84.30;;;;;;5002995;28;20053;-61
2022/01/21 05:55:27;;;;;;;11.95;2.22;;;2.80;84.30;;;;;;4997063;28;20031;-61
2022/01/21 05:57:53;;;;;;;9.13;2.40;;;2.80;84.30;;;;;;4994944;28;20663;-61
2022/01/21 06:00:18;;;;;;;11.82;2.72;;;2.80;84.30;;;;;;5003830;28;20039;-61
2022/01/21 06:02:44;;;;;;;15.15;2.25;;;2.80;84.30;;;;;;4989413;28;20026;-61
2022/01/21 06:05:10;;;;;;;7.57;2.10;;;2.80;84.30;;;;;;4991274;28;20096;-61
2022/01/21 06:07:35;;;;;;;11.85;3.25;;;2.80;84.30;;;;;;4995572;28;20030;-61
2022/01/21 06:10:01;;;;;;;8.30;1.60;;;2.80;84.40;;;;;;5009703;28;20413;-61
2022/01/21 06:12:27;;;;;;;11.98;2.20;;;2.80;84.40;;;;;;5004792;28;20027;-61
2022/01/21 06:14:53;;;;;;;10.80;1.73;;;2.80;84.60;;;;;;4991345;28;20026;-61
2022/01/21 06:17:18;;;;;;;7.60;1.67;;;2.80;84.60;;;;;;4989470;28;20027;-61
2022/01/21 06:19:44;;;;;;;9.80;1.70;;;2.70;84.70;;;;;;4991202;28;20541;-61
2022/01/21 06:22:10;;;;;;;12.18;1.90;;;2.80;84.80;;;;;;4993031;28;20042;-61
2022/01/21 06:24:36;;;;;;;12.55;1.80;;;2.70;84.80;;;;;;4980291;28;20097;-61
2022/01/21 06:27:04;;;;;;;6.90;2.17;;;2.80;84.90;;;;;;4992860;28;20030;-61
2022/01/21 06:29:30;;;;;;;10.68;1.73;;;2.70;84.80;;;;;;4990267;28;20459;-63
2022/01/21 06:31:56;;;;;;;8.70;2.00;;;2.70;84.90;;;;;;4991522;28;20030;-61
2022/01/21 06:34:22;;;;;;;7.90;1.50;;;2.70;85.00;;;;;;4991194;28;20065;-61
2022/01/21 06:36:47;;;;;;;5.22;1.27;;;2.70;85.00;;;;;;4973897;28;20074;-66
2022/01/21 06:39:13;;;;;;;14.40;2.47;;;2.70;85.00;;;;;;4975195;28;20105;-66
2022/01/21 06:41:40;;;;;;;6.45;1.90;;;2.70;85.20;;;;;;4992430;28;20121;-65
2022/01/21 06:44:06;;;;;;;5.68;1.40;;;2.80;85.30;;;;;;4990314;28;20026;-66
2022/01/21 06:46:33;;;;;;;7.93;1.55;;;2.70;85.30;;;;;;4992265;28;20038;-66
2022/01/21 06:48:58;;;;;;;9.98;1.80;;;2.80;85.40;;;;;;4992051;28;20157;-66
2022/01/21 06:51:24;;;;;;;5.53;1.50;;;2.80;85.50;;;;;;4990956;28;20531;-67
2022/01/21 06:53:50;;;;;;;8.70;1.42;;;2.80;85.50;;;;;;4992998;28;20061;-61
2022/01/21 06:56:15;;;;;;;12.35;1.48;;;2.90;85.50;;;;;;4974718;28;20035;-61
2022/01/21 06:58:41;;;;;;;7.22;1.40;;;2.90;85.50;;;;;;4973386;28;20042;-65
2022/01/21 07:01:07;;;;;;;9.73;1.50;;;2.90;85.60;;;;;;4984693;28;20042;-61
2022/01/21 07:03:32;;;;;;;7.72;1.77;;;2.90;85.60;;;;;;4992697;28;20037;-61
2022/01/21 07:05:59;;;;;;;8.80;1.40;;;3.00;85.70;;;;;;4975700;28;20109;-61
2022/01/21 07:08:26;;;;;;;7.50;1.75;;;3.00;85.80;;;;;;4973415;28;20027;-62
2022/01/21 07:10:52;;;;;;;4.55;1.35;;;3.00;85.80;;;;;;4955805;28;20046;-62
2022/01/21 07:13:17;;;;;;;9.10;1.60;;;3.00;85.80;;;;;;4984154;28;20058;-62
2022/01/21 07:15:43;;;;;;;5.50;1.17;;;3.00;85.80;;;;;;4975285;28;20031;-66
2022/01/21 07:18:09;;;;;;;5.20;1.10;;;3.00;85.80;;;;;;4989730;28;20038;-67
2022/01/21 07:20:35;;;;;;;8.52;1.48;;;3.10;85.90;;;;;;4992379;28;20042;-62
2022/01/21 07:23:00;;;;;;;11.02;1.80;;;3.10;85.90;;;;;;4994995;28;20054;-66
2022/01/21 07:25:27;;;;;;;5.82;1.33;;;3.10;86.00;;;;;;5009536;28;20113;-66
2022/01/21 07:27:53;;;;;;;8.98;1.33;;;3.10;86.00;;;;;;4993081;28;20022;-68
2022/01/21 07:30:19;;;;;;;11.95;2.30;;;3.10;86.00;;;;;;4994049;28;20434;-62
2022/01/21 07:32:45;;;;;;;6.10;1.58;;;3.20;86.00;;;;;;5008119;28;20126;-62
2022/01/21 07:35:12;;;;;;;11.27;1.48;;;3.20;86.00;;;;;;5013890;28;20141;-62
2022/01/21 07:37:38;;;;;;;8.10;1.55;;;3.10;85.90;;;;;;5008543;28;20033;-63
2022/01/21 07:40:06;;;;;;;4.78;1.50;;;3.20;86.00;;;;;;4982694;28;20036;-62
2022/01/21 07:42:32;;;;;;;5.45;1.23;;;3.10;85.90;;;;;;5009177;28;20026;-62
2022/01/21 07:44:58;;;;;;;8.70;1.90;;;3.20;86.10;;;;;;5007710;28;20389;-62
2022/01/21 07:47:24;;;;;;;10.82;1.50;;;3.10;86.10;;;;;;4975125;28;20030;-62
2022/01/21 07:49:50;;;;;;;9.50;1.92;;;3.10;86.10;;;;;;4989344;28;20033;-62
2022/01/21 07:52:18;;;;;;;7.55;2.75;;;3.20;86.10;;;;;;5010464;28;20030;-68
2022/01/21 07:54:44;;;;;;;10.27;1.80;;;3.20;86.20;;;;;;5005417;28;20034;-68
2022/01/21 07:57:10;;;;;;;10.35;2.05;;;3.20;86.20;;;;;;5017212;28;20374;-67
2022/01/21 07:59:36;;;;;;;10.45;1.70;;;3.20;86.30;;;;;;5006813;28;20480;-68
2022/01/21 08:02:03;;;;;;;12.93;2.78;;;3.10;86.20;;;;;;4985551;28;20026;-68
2022/01/21 08:04:28;;;;;;;9.43;1.75;;;3.10;86.30;;;;;;5006540;28;20142;-62
2022/01/21 08:06:54;;;;;;;9.93;1.80;;;3.10;86.30;;;;;;4974226;28;20145;-62
2022/01/21 08:09:24;;;;;;;7.53;1.85;;;3.10;86.30;;;;;;4975518;28;20042;-62
2022/01/21 08:11:51;;;;;;;12.65;2.17;;;3.10;86.30;;;;;;5008469;28;20457;-62
2022/01/21 08:14:17;;;;;;;8.95;1.52;;;3.10;86.40;;;;;;5009627;28;20029;-62
2022/01/21 08:16:43;;;;;;;4.82;1.80;;;3.10;86.30;;;;;;4997115;28;20033;-62
2022/01/21 08:19:09;;;;;;;8.75;1.60;;;3.10;86.30;;;;;;5015261;28;20428;-62
2022/01/21 08:21:35;;;;;;;8.60;1.90;;;3.20;86.40;;;;;;5007915;28;20100;-62
2022/01/21 08:24:00;;;;;;;7.30;1.55;;;3.20;86.40;;;;;;4992774;28;20405;-62
2022/01/21 08:26:28;;;;;;;6.45;1.73;;;3.20;86.40;;;;;;4995808;28;20473;-62
2022/01/21 08:28:54;;;;;;;6.55;1.90;;;3.20;86.30;;;;;;5010656;28;20030;-61
2022/01/21 08:31:20;;;;;;;6.78;1.33;;;3.20;86.20;;;;;;4986307;28;20146;-63
2022/01/21 08:33:46;;;;;;;10.18;1.70;;;3.20;86.30;;;;;;4992821;28;20117;-63
2022/01/21 08:36:12;;;;;;;9.15;1.58;;;3.20;86.50;;;;;;5008098;28;20057;-64
2022/01/21 08:38:38;;;;;;;8.18;1.73;;;3.30;86.60;;;;;;5005382;28;20470;-62
2022/01/21 08:41:04;;;;;;;7.93;2.70;;;3.30;86.60;;;;;;5007344;28;20609;-62
2022/01/21 08:43:30;;;;;;;7.03;1.83;;;3.30;86.60;;;;;;5008779;28;20129;-62
2022/01/21 08:45:56;;;;;;;7.20;1.67;;;3.30;86.60;;;;;;5000051;28;20105;-62
2022/01/21 08:48:22;;;;;;;7.97;1.63;;;3.30;86.60;;;;;;5009957;28;20017;-62
2022/01/21 08:50:48;;;;;;;4.32;1.30;;;3.40;86.80;;;;;;5009580;28;20033;-62
2022/01/21 08:55:58;;;;;;;10.23;2.17;;;3.40;86.90;;;;;;5008605;28;20077;-68
2022/01/21 08:58:25;;;;;;;7.95;1.98;;;3.40;86.90;;;;;;5004870;28;20053;-68
2022/01/21 09:00:51;;;;;;;7.85;2.08;;;3.50;87.00;;;;;;5008429;28;20443;-62
2022/01/21 09:03:16;;;;;;;5.95;1.27;;;3.50;87.00;;;;;;5009732;28;20041;-62
2022/01/21 09:05:48;;;;;;;9.32;2.28;;;3.60;87.00;;;;;;5002767;28;20037;-62
2022/01/21 09:08:18;;;;;;;7.05;1.50;;;3.60;86.90;;;;;;4971722;28;20389;-63
2022/01/21 09:10:43;;;;;;;7.80;1.85;;;3.70;86.90;;;;;;5000438;28;20509;-67
2022/01/21 09:13:09;;;;;;;7.10;1.38;;;3.70;87.00;;;;;;4998370;28;20056;-63
2022/01/21 09:15:36;;;;;;;8.65;2.20;;;3.70;87.00;;;;;;5009672;28;20033;-63
2022/01/21 09:18:04;;;;;;;5.78;1.70;;;3.70;87.00;;;;;;5004368;28;20030;-62
2022/01/21 09:20:35;;;;;;;6.63;2.65;;;3.80;87.20;;;;;;5009398;28;20507;-63
2022/01/21 09:23:01;;;;;;;5.35;1.67;;;3.90;87.20;;;;;;5010176;28;20098;-63
2022/01/21 09:25:27;;;;;;;5.70;1.55;;;4.00;87.10;;;;;;5007860;28;20116;-63
2022/01/21 09:27:53;;;;;;;10.55;2.10;;;4.10;87.00;;;;;;5008153;28;20117;-63
2022/01/21 09:30:19;;;;;;;9.20;2.13;;;4.10;86.80;;;;;;4991168;28;20077;-62
2022/01/21 09:32:45;;;;;;;12.02;1.80;;;4.20;86.80;;;;;;4989284;28;20034;-68
2022/01/21 09:35:11;;;;;;;7.60;1.65;;;4.20;86.70;;;;;;5004080;28;20037;-69
2022/01/21 09:37:37;;;;;;;8.55;1.67;;;4.30;86.80;;;;;;5007729;28;20064;-68
2022/01/21 09:40:05;;;;;;;10.18;1.95;;;4.40;86.80;;;;;;5009548;28;20469;-68
2022/01/21 09:42:36;;;;;;;8.80;1.42;;;4.50;86.50;;;;;;4999549;28;20508;-68
2022/01/21 09:45:08;;;;;;;10.50;1.60;;;4.50;86.50;;;;;;4989979;28;20030;-68
2022/01/21 09:47:44;;;;;;;;;;;4.50;86.20;;;;;;4991777;28;20069;-69
2022/01/21 09:50:12;;;;;;;9.52;1.80;;;4.50;86.20;;;;;;4997236;28;19925;-69
2022/01/21 09:52:43;;;;;;;8.05;2.53;;;4.50;86.60;;;;;;5003804;28;20022;-69
2022/01/21 09:55:08;;;;;;;7.35;1.70;;;4.50;86.70;;;;;;5009459;28;20029;-68
2022/01/21 09:57:35;;;;;;;6.28;1.67;;;4.60;86.50;;;;;;5012135;28;20036;-68
2022/01/21 10:00:04;;;;;;;7.90;1.80;;;4.60;86.50;;;;;;5001915;28;20477;-69
2022/01/21 10:02:30;;;;;;;11.80;2.33;;;4.80;86.60;;;;;;5009573;28;20038;-69
2022/01/21 10:04:58;;;;;;;10.45;2.03;;;4.80;86.40;;;;;;4995053;28;20037;-67
2022/01/21 10:07:24;;;;;;;9.90;1.83;;;4.90;86.30;;;;;;5011948;28;20025;-67
2022/01/21 10:09:52;;;;;;;7.47;1.80;;;5.00;86.30;;;;;;5010518;28;20465;-67
2022/01/21 10:12:18;;;;;;;9.00;1.88;;;5.10;86.00;;;;;;5010657;28;20029;-67
2022/01/21 10:14:45;;;;;;;7.47;1.80;;;5.20;85.60;;;;;;5006335;28;20484;-66
2022/01/21 10:17:11;;;;;;;11.18;2.15;;;5.40;85.80;;;;;;5010237;28;20030;-66
2022/01/21 10:19:48;;;;;;;12.55;1.92;;;5.50;85.60;;;;;;5010981;28;20099;-67
2022/01/21 10:22:18;;;;;;;9.65;2.17;;;5.60;85.30;;;;;;5008841;28;20518;-67
2022/01/21 10:24:55;;;;;;;9.10;2.00;;;5.80;85.10;;;;;;5012063;28;20049;-66
2022/01/21 10:27:32;;;;;;;9.95;2.45;;;5.90;84.60;;;;;;5007819;28;20030;-67
2022/01/21 10:29:58;;;;;;;10.98;2.10;;;6.10;84.30;;;;;;5010073;28;20026;-67
2022/01/21 10:32:41;;;;;;;22.10;3.40;;;6.20;84.20;;;;;;5009064;28;20041;-67
2022/01/21 10:35:25;;;;;;;;;;;6.30;83.50;;;;;;5012063;28;20485;-66
2022/01/21 10:37:51;;;;;;;7.68;2.30;;;6.40;83.30;;;;;;5012505;28;19963;-67
2022/01/21 10:40:21;;;;;;;10.05;2.38;;;6.40;82.90;;;;;;5011638;28;20117;-66
2022/01/21 10:42:48;;;;;;;11.57;1.70;;;6.50;83.40;;;;;;5011553;28;20108;-67
2022/01/21 10:45:14;;;;;;;7.53;1.77;;;6.80;83.90;;;;;;5012447;28;20114;-66
2022/01/21 10:47:50;;;;;;;8.15;1.60;;;7.30;82.50;;;;;;5004514;28;20057;-66
2022/01/21 10:50:23;;;;;;;9.63;2.00;;;7.90;80.70;;;;;;5012345;28;20022;-67
2022/01/21 10:52:51;;;;;;;7.53;1.70;;;8.10;79.30;;;;;;5011556;28;20030;-67
2022/01/21 10:55:26;;;;;;;8.98;1.95;;;8.10;78.40;;;;;;5019800;28;20113;-66
2022/01/21 10:58:13;;;;;;;10.57;2.72;;;7.90;78.10;;;;;;5009194;28;20037;-67
2022/01/21 11:01:23;;;;;;;11.93;2.47;;;7.60;78.30;;;;;;5003892;28;20126;-67
2022/01/21 11:04:03;;;;;;;11.60;2.00;;;7.30;79.10;;;;;;4970503;28;20152;-66
2022/01/21 11:06:38;;;;;;;13.70;1.90;;;7.10;80.00;;;;;;4998277;28;20117;-67
2022/01/21 11:09:24;;;;;;;5.70;1.77;;;6.90;80.50;;;;;;5015206;28;20033;-67
2022/01/21 11:12:08;;;;;;;8.80;1.98;;;6.80;80.90;;;;;;5000223;28;20415;-67
2022/01/21 11:14:36;;;;;;;11.55;2.13;;;6.80;81.40;;;;;;5009983;28;20472;-67
2022/01/21 11:17:14;;;;;;;9.95;2.47;;;6.80;81.50;;;;;;5012596;28;20037;-62
2022/01/21 11:19:59;;;;;;;10.75;2.10;;;6.70;81.70;;;;;;5009504;28;20133;-62
2022/01/21 11:22:25;;;;;;;11.20;2.10;;;6.60;82.00;;;;;;5009573;28;20483;-61
2022/01/21 11:24:51;;;;;;;13.20;2.28;;;6.60;82.30;;;;;;5010828;28;20030;-61
2022/01/21 11:27:17;;;;;;;10.15;2.10;;;6.50;82.50;;;;;;5010419;28;20064;-62
2022/01/21 11:29:45;;;;;;;13.57;2.40;;;6.50;82.70;;;;;;5010638;28;20057;-62
2022/01/21 11:32:13;;;;;;;8.75;2.00;;;6.70;83.10;;;;;;5008363;28;20069;-62
2022/01/21 11:34:39;;;;;;;14.90;2.65;;;7.00;82.70;;;;;;5004115;28;20026;-61
2022/01/21 11:37:06;;;;;;;11.57;2.75;;;7.30;82.10;;;;;;4990750;28;20056;-61
2022/01/21 11:39:32;;;;;;;10.90;1.98;;;7.50;81.40;;;;;;5010598;28;20022;-61
2022/01/21 11:42:00;;;;;;;16.83;2.47;;;7.40;81.20;;;;;;5009941;28;20116;-62
2022/01/21 11:44:28;;;;;;;8.23;2.55;;;7.20;81.80;;;;;;5010850;28;20042;-62
2022/01/21 11:49:41;;;;;;;10.88;2.10;;;6.90;83.10;;;;;;5008285;28;20022;-62
2022/01/21 11:52:11;;;;;;;9.18;3.10;;;6.80;83.40;;;;;;5009173;28;20481;-61
2022/01/21 11:54:38;;;;;;;9.73;2.13;;;6.80;83.60;;;;;;5010400;28;20045;-61
2022/01/21 11:57:06;;;;;;;13.45;2.25;;;6.70;83.80;;;;;;5009827;28;20041;-61
2022/01/21 11:59:34;;;;;;;9.98;2.30;;;6.70;84.10;;;;;;5010459;28;20425;-61
2022/01/21 12:02:23;;;;;;;7.60;1.65;;;6.60;84.20;;;;;;5009672;28;20026;-62
2022/01/21 12:05:01;;;;;;;7.85;2.03;;;6.60;84.40;;;;;;5006462;28;20040;-61
2022/01/21 12:07:44;;;;;;;5.60;1.45;;;6.50;84.50;;;;;;5009697;28;20026;-61
2022/01/21 12:10:21;;;;;;;10.00;2.47;;;6.50;84.80;;;;;;5015971;28;20057;-62
2022/01/21 12:20:55;;;;;;;10.50;2.38;;;6.60;85.90;;;;;;5005802;28;20111;-62
2022/01/21 12:23:23;;;;;;;10.18;2.20;;;6.60;86.00;;;;;;5008987;28;20054;-61
2022/01/21 12:26:17;;;;;;;12.50;1.85;;;6.60;86.40;;;;;;5010921;28;20488;-61
2022/01/21 12:29:03;;;;;;;13.75;2.20;;;6.70;86.30;;;;;;5008566;28;20503;-61
2022/01/21 12:31:39;;;;;;;9.45;2.03;;;6.70;86.20;;;;;;4997830;28;20038;-61
2022/01/21 12:34:12;;;;;;;11.52;2.00;;;6.80;86.30;;;;;;5010086;28;20046;-61
2022/01/21 12:37:05;;;;;;;12.32;2.63;;;6.80;86.20;;;;;;5009834;28;20477;-61
2022/01/21 12:39:46;;;;;;;10.20;2.03;;;6.80;86.30;;;;;;4991704;28;20822;-61
2022/01/21 12:42:21;;;;;;;10.80;2.30;;;6.80;86.30;;;;;;5017229;28;20355;-62
2022/01/21 12:44:48;;;;;;;10.07;2.28;;;6.80;86.30;;;;;;5009829;28;20029;-61
2022/01/21 12:47:27;;;;;;;13.18;2.40;;;6.90;86.40;;;;;;5009500;28;20030;-61
2022/01/21 12:49:55;;;;;;;12.25;2.10;;;6.90;86.40;;;;;;5009724;28;20013;-62
2022/01/21 12:58:15;;;;;;;14.77;2.90;;;6.90;86.30;;;;;;5009533;28;20032;-66
2022/01/21 13:00:42;;;;;;;15.98;2.70;;;7.00;86.30;;;;;;5008956;28;20034;-68
2022/01/21 13:03:42;;;;;;;12.43;2.35;;;7.00;86.30;;;;;;5008205;28;20389;-67
2022/01/21 13:06:37;;;;;;;14.45;3.05;;;7.10;86.30;;;;;;5003478;28;20048;-68
2022/01/21 13:09:09;;;;;;;13.05;2.20;;;7.10;86.20;;;;;;5009038;28;20018;-67
2022/01/21 13:11:39;;;;;;;;;;;7.10;86.20;;;;;;5009187;28;20387;-67
2022/01/21 13:17:05;;;;;;;11.95;1.80;;;7.00;86.10;;;;;;5011669;28;20030;-66
2022/01/21 13:19:47;;;;;;;8.27;1.70;;;7.10;86.20;;;;;;4991344;28;20064;-61
2022/01/21 13:22:35;;;;;;;12.17;2.03;;;7.10;86.30;;;;;;5009072;28;20022;-61
2022/01/21 13:25:15;;;;;;;16.10;2.78;;;7.10;86.20;;;;;;5007522;28;20041;-62
2022/01/21 13:27:55;;;;;;;7.47;1.70;;;7.10;86.20;;;;;;5008768;28;20440;-62
2022/01/21 13:30:24;;;;;;;10.50;2.17;;;7.10;86.20;;;;;;4999902;28;20075;-68
2022/01/21 13:33:09;;;;;;;11.90;2.20;;;7.10;86.20;;;;;;5008811;28;20026;-67
2022/01/21 13:35:38;;;;;;;8.63;1.70;;;7.10;86.20;;;;;;5012372;28;20037;-67
2022/01/21 13:38:12;;;;;;;10.38;2.20;;;7.20;86.20;;;;;;5005458;28;20132;-67
2022/01/21 13:40:50;;;;;;;10.43;1.75;;;7.20;86.20;;;;;;5003819;28;20547;-67
2022/01/21 13:43:15;;;;;;;11.85;1.95;;;7.20;86.10;;;;;;5012188;28;20420;-68
2022/01/21 13:46:01;;;;;;;12.57;2.13;;;7.20;86.00;;;;;;5013051;28;20080;-67
2022/01/21 13:48:28;;;;;;;15.43;2.90;;;7.20;85.70;;;;;;5013218;28;20030;-67
2022/01/21 13:50:55;;;;;;;12.43;2.20;;;7.30;85.60;;;;;;5012370;28;20503;-68
2022/01/21 13:53:24;;;;;;;11.40;1.90;;;7.30;85.50;;;;;;5009538;28;20029;-68
2022/01/21 13:55:59;;;;;;;12.35;2.22;;;7.20;85.20;;;;;;5014319;28;20397;-68
2022/01/21 13:58:45;;;;;;;8.02;2.50;;;7.30;85.30;;;;;;5011446;28;20560;-68
2022/01/21 14:01:21;;;;;;;13.65;2.22;;;7.30;85.20;;;;;;5009142;28;20033;-68
2022/01/21 14:03:46;;;;;;;11.60;2.33;;;7.30;85.20;;;;;;5015762;28;20034;-68
2022/01/21 14:06:15;;;;;;;12.75;2.70;;;7.30;85.10;;;;;;5013588;28;20026;-68
2022/01/21 14:08:45;;;;;;;10.55;2.45;;;7.30;85.10;;;;;;5009883;28;20497;-68
2022/01/21 14:11:27;;;;;;;10.82;2.00;;;7.30;85.10;;;;;;5013347;28;20038;-68